Terminal Aerodrome Forecast
Issued by NWS Duluth, MN

Home | Current Version | Previous Version | Text Only | Print | Product List | Glossary On
Versions: 1 2 3 4 5 6 7 8 9 10 11 12 13 14 15 16 17 18
000
FTUS43 KDLH 290538
TAFDLH
TAF
KDLH 290538Z 2906/3006 25014KT P6SM SKC WS010/25040KT
     FM291200 24014G20KT P6SM SCT050
     FM291500 26020G37KT P6SM BKN050
     FM300200 28014KT P6SM FEW050=

USA.gov is the U.S. government's official web portal to all federal, state and local government web resources and services.